Latest Weather Observations for Wilcannia Airport

IDN60801

Issued at 2:02 pm EST Thursday 3 September 2015 (issued every 30 minutes, with the page automatically refreshed every 10 minutes)

About weather observations | Map of weather stations | Latest weather observations for NSW | Other Formats
Station Details ID: 046012 Name: WILCANNIA AERODROME AWS Lat: -31.52 Lon: 143.38 Height: 94.3 m
Data from the previous 72 hours. | See also: Recent months at Wilcannia Airport
Date/Time
EST
Temp
°C
App
Temp
°C
Dew
Point
Rel
Hum
%
Delta-T
°C
Wind Press
QNH
hPa
Press
MSL
hPa
Rain
since 9 am
mm
Dir
 
Spd
km/h
Gust
km/h
Spd
kts
Gust
kts
03/02:00pm 15.2 8.6 7.7 61 3.7 SW 32 43 17 23 1017.0 1016.9 0.2
03/01:30pm 14.9 8.2 7.5 61 3.7 SW 32 43 17 23 1016.9 1016.8 0.2
03/01:00pm 15.1 8.9 7.9 62 3.6 SW 30 39 16 21 1016.7 1016.6 0.2
03/12:30pm 14.5 7.8 7.5 63 3.5 SW 32 44 17 24 1016.5 1016.4 0.2
03/12:00pm 14.9 9.2 8.2 64 3.4 WSW 28 43 15 23 1016.4 1016.2 0.2
03/11:30am 14.9 8.7 7.9 63 3.5 SW 30 43 16 23 1016.5 1016.4 0.0
03/11:00am 13.9 8.1 7.9 67 3.0 SW 28 44 15 24 1016.2 1016.0 0.0
03/10:30am 12.8 6.2 7.7 71 2.5 SW 32 46 17 25 1016.2 1016.0 0.0
03/10:00am 12.9 6.1 7.8 71 2.5 SW 33 52 18 28 1015.8 1015.6 0.0
03/09:30am 12.6 7.0 8.7 77 2.0 SW 28 41 15 22 1015.1 1014.9 0.0
03/09:00am 11.7 5.9 9.6 87 1.1 SW 30 39 16 21 1014.2 1014.0 6.6
03/08:30am 11.4 6.3 9.3 87 1.1 SW 26 39 14 21 1013.3 1013.1 6.6
03/08:00am 10.5 6.5 9.1 91 0.7 SW 20 32 11 17 1011.9 1011.8 6.6
03/07:30am 10.2 6.2 9.1 93 0.5 SW 20 30 11 16 1010.8 1010.7 6.6
03/07:00am 9.9 5.8 8.8 93 0.5 WSW 20 28 11 15 1009.8 1009.7 6.6
03/06:30am 9.8 6.0 8.9 94 0.4 WSW 19 33 10 18 1009.2 1009.1 6.6
03/06:00am 9.7 5.9 8.9 95 0.4 W 19 22 10 12 1008.4 1008.3 6.6
03/05:30am 9.8 5.8 8.9 94 0.4 W 20 26 11 14 1007.9 1007.8 6.4
03/05:00am 9.8 5.7 8.7 93 0.5 W 20 28 11 15 1007.4 1007.2 6.4
03/04:30am 10.1 4.4 8.2 88 0.9 WNW 28 37 15 20 1007.1 1006.9 6.0
03/04:00am 11.4 5.8 7.3 76 2.0 WNW 26 43 14 23 1006.7 1006.5 6.0
03/03:30am 11.7 6.2 7.4 75 2.1 WNW 26 37 14 20 1006.6 1006.4 6.0
03/03:00am 11.6 6.6 7.9 78 1.8 W 24 35 13 19 1006.6 1006.4 6.0
03/02:30am 11.9 6.5 8.0 77 1.9 WNW 26 35 14 19 1006.6 1006.4 6.0
03/02:00am 12.0 7.1 8.5 79 1.7 WNW 24 32 13 17 1006.7 1006.5 6.0
03/01:30am 12.5 6.8 8.4 76 2.0 WNW 28 39 15 21 1006.6 1006.4 6.0
03/01:00am 12.8 7.8 8.1 73 2.3 WNW 24 32 13 17 1006.8 1006.6 6.0
03/12:30am 12.4 7.3 7.5 72 2.4 WNW 24 32 13 17 1007.0 1006.8 6.0
03/12:00am 12.7 8.2 6.1 64 3.1 NNW 19 39 10 21 1007.1 1006.9 5.8
 
Date/Time
EST
Temp
°C
App
Temp
°C
Dew
Point
Rel
Hum
%
Delta-T
°C
Wind Press
QNH
hPa
Press
MSL
hPa
Rain
since 9 am
mm
Dir
 
Spd
km/h
Gust
km/h
Spd
kts
Gust
kts
02/11:30pm 11.3 8.0 6.2 71 2.4 N 13 15 7 8 1007.3 1007.1 5.8
02/11:00pm 10.8 7.5 6.2 73 2.2 NNW 13 17 7 9 1007.6 1007.5 5.8
02/10:30pm 10.3 7.0 6.5 77 1.8 NNW 13 15 7 8 1007.6 1007.5 5.8
02/10:00pm 10.9 7.3 6.8 76 2.0 NNW 15 19 8 10 1007.6 1007.5 5.8
02/09:30pm 9.8 6.6 6.7 81 1.5 N 13 17 7 9 1007.5 1007.4 5.8
02/09:00pm 10.1 6.6 7.2 82 1.4 N 15 17 8 9 1007.3 1007.1 5.8
02/08:30pm 9.9 6.5 7.8 87 1.0 N 15 17 8 9 1007.1 1006.9 5.8
02/08:00pm 9.5 6.9 7.6 88 0.9 N 11 13 6 7 1006.8 1006.6 5.8
02/07:30pm 9.7 8.1 7.8 88 0.9 N 6 7 3 4 1006.9 1006.7 5.8
02/07:00pm 10.2 8.6 8.0 86 1.1 SSE 6 9 3 5 1007.0 1006.8 5.8
02/06:30pm 11.9 9.6 8.9 82 1.5 W 11 13 6 7 1006.8 1006.6 5.8
02/06:00pm 13.6 9.9 9.6 77 2.1 W 19 20 10 11 1006.5 1006.3 5.8
02/05:30pm 14.3 10.0 9.3 72 2.6 WSW 22 32 12 17 1006.3 1006.1 5.8
02/05:00pm 14.0 11.7 11.7 86 1.2 WSW 15 22 8 12 1005.9 1005.7 5.8
02/04:30pm 13.5 10.3 11.2 86 1.2 SW 19 28 10 15 1005.8 1005.6 5.8
02/04:00pm 11.8 9.2 10.7 93 0.6 SSW 15 22 8 12 1005.8 1005.6 5.8
02/03:30pm 11.6 8.6 10.5 93 0.6 SSW 17 24 9 13 1006.1 1005.9 4.2
02/03:00pm 11.4 5.1 9.8 90 0.8 SW 33 48 18 26 1006.7 1006.5 3.0
02/02:45pm 12.9 6.2 9.5 80 1.7 SW 35 56 19 30 1005.8 1005.6 2.0
02/02:30pm 15.1 9.3 10.7 75 2.3 WSW 32 46 17 25 1005.2 1005.0 1.6
02/02:26pm 15.4 10.2 10.2 71 2.7 WSW 28 46 15 25 1004.9 1004.7 1.6
02/02:04pm 20.7 16.4 7.0 41 7.0 WNW 19 39 10 21 1004.4 1004.2 0.4
02/02:00pm 21.9 19.0 8.1 41 7.3 NW 13 19 7 10 1004.3 1004.1 0.4
02/01:30pm 22.0 18.4 8.2 41 7.3 NNW 17 20 9 11 1005.0 1004.8 0.4
02/01:00pm 20.5 15.8 6.1 39 7.3 N 20 30 11 16 1005.7 1005.5 0.4
02/12:30pm 21.0 16.6 7.3 41 7.1 N 20 32 11 17 1006.3 1006.1 0.4
02/12:00pm 21.7 16.7 6.4 37 7.8 NNE 22 35 12 19 1006.0 1005.8 0.4
02/11:30am 17.1 11.3 8.0 55 4.6 NE 28 37 15 20 1006.1 1005.9 0.4
02/11:00am 20.1 14.5 3.3 33 8.0 ENE 22 33 12 18 1006.9 1006.7 0.0
02/10:30am 16.3 12.5 5.9 50 5.1 ENE 15 19 8 10 1008.1 1008.0 0.0
02/10:24am 15.9 13.4 6.6 54 4.6 NE 9 17 5 9 1008.7 1008.6 0.0
02/10:00am 17.2 11.9 1.6 35 7.0 N 19 32 10 17 1010.7 1010.6 0.0
02/09:30am 17.0 9.9 1.4 35 6.9 NNE 28 41 15 22 1009.7 1009.6 0.0
02/09:00am 17.0 9.5 1.4 35 7.0 NE 30 39 16 21 1009.4 1009.3 0.0
02/08:30am 15.9 9.6 1.6 38 6.3 NE 24 37 13 20 1009.5 1009.4 0.0
02/08:00am 13.5 7.8 2.7 48 4.8 NE 22 28 12 15 1009.9 1009.8 0.0
02/07:30am 11.9 6.7 2.6 53 4.1 ENE 19 24 10 13 1009.9 1009.8 0.0
02/07:00am 11.4 6.6 2.7 55 3.8 NE 17 22 9 12 1010.2 1010.1 0.0
02/06:30am 10.9 5.7 2.5 56 3.6 NE 19 26 10 14 1010.2 1010.1 0.0
02/06:00am 10.9 5.6 3.0 58 3.5 NE 20 24 11 13 1009.6 1009.5 0.0
02/05:30am 11.0 5.8 3.8 61 3.2 NE 20 22 11 12 1010.2 1010.1 0.0
02/05:00am 10.1 5.6 4.0 66 2.7 ENE 17 19 9 10 1010.4 1010.3 0.0
02/04:30am 10.6 6.1 4.3 65 2.8 ENE 17 19 9 10 1010.4 1010.3 0.0
02/04:00am 11.6 8.0 4.8 63 3.1 ENE 13 17 7 9 1010.5 1010.4 0.0
02/03:30am 12.3 8.3 4.8 60 3.5 NE 15 17 8 9 1011.0 1010.9 0.0
02/03:00am 13.0 9.0 4.7 57 3.8 NE 15 17 8 9 1011.3 1011.2 0.0
02/02:30am 13.9 10.2 4.2 52 4.5 NE 13 17 7 9 1012.1 1012.0 0.0
02/02:00am 13.9 9.8 4.2 52 4.5 NE 15 17 8 9 1012.5 1012.4 0.0
02/01:30am 14.0 9.8 4.0 51 4.6 ENE 15 17 8 9 1012.5 1012.4 0.0
02/01:00am 14.6 10.6 3.1 46 5.2 NE 13 15 7 8 1013.2 1013.0 0.0
02/12:30am 14.8 11.2 3.0 45 5.3 N 11 13 6 7 1013.7 1013.5 0.0
02/12:00am 14.9 11.3 2.8 44 5.4 NNE 11 15 6 8 1013.7 1013.5 0.0
 
Date/Time
EST
Temp
°C
App
Temp
°C
Dew
Point
Rel
Hum
%
Delta-T
°C
Wind Press
QNH
hPa
Press
MSL
hPa
Rain
since 9 am
mm
Dir
 
Spd
km/h
Gust
km/h
Spd
kts
Gust
kts
01/11:30pm 13.9 10.6 4.5 53 4.4 NE 11 13 6 7 1013.2 1013.0 0.0
01/11:00pm 14.0 10.3 4.6 53 4.4 NE 13 15 7 8 1013.1 1012.9 0.0
01/10:30pm 14.1 10.6 5.5 56 4.1 NE 13 15 7 8 1013.5 1013.3 0.0
01/10:00pm 14.3 10.9 5.7 56 4.1 ENE 13 15 7 8 1013.5 1013.3 0.0
01/09:30pm 14.8 11.1 4.5 50 4.8 NE 13 17 7 9 1013.8 1013.6 0.0
01/09:00pm 15.4 11.8 2.9 43 5.7 NE 11 13 6 7 1013.8 1013.6 0.0
01/08:30pm 15.5 11.5 2.7 42 5.8 NE 13 15 7 8 1013.9 1013.7 0.0
01/08:00pm 15.1 11.7 4.2 48 5.1 NNE 11 13 6 7 1014.0 1013.8 0.0
01/07:30pm 15.1 11.8 4.5 49 5.0 NE 11 11 6 6 1013.8 1013.6 0.0
01/07:00pm 15.8 12.3 3.3 43 5.7 NE 11 13 6 7 1013.7 1013.5 0.0
01/06:30pm 16.4 12.9 1.3 36 6.7 NE 9 11 5 6 1013.7 1013.5 0.0
01/06:00pm 17.6 14.0 0.3 31 7.6 NE 9 20 5 11 1013.6 1013.4 0.0
01/05:30pm 18.6 14.0 -0.7 27 8.3 NNE 13 19 7 10 1013.7 1013.5 0.0
01/05:00pm 19.0 14.7 -1.4 25 8.7 NNE 11 19 6 10 1013.6 1013.4 0.0
01/04:30pm 19.8 14.5 -0.8 25 9.0 NNE 17 24 9 13 1013.6 1013.4 0.0
01/04:00pm 20.2 15.2 -1.0 24 9.2 NE 15 22 8 12 1013.5 1013.3 0.0
01/03:30pm 20.2 14.8 -1.6 23 9.4 NNE 17 24 9 13 1013.9 1013.7 0.0
01/03:00pm 19.4 14.3 -1.7 24 9.0 NNE 15 22 8 12 1014.1 1013.9 0.0
01/02:30pm 20.6 16.4 -0.7 24 9.4 N 11 20 6 11 1014.6 1014.4 0.0
01/02:00pm 19.9 16.0 1.4 29 8.4 NNE 11 20 6 11 1015.0 1014.8 0.0
01/01:30pm 19.6 15.2 0.1 27 8.6 NE 13 24 7 13 1015.4 1015.2 0.0
01/01:00pm 20.2 15.3 -0.4 25 9.1 N 15 24 8 13 1015.9 1015.7 0.0
01/12:30pm 19.8 15.4 0.3 27 8.7 NE 13 22 7 12 1016.4 1016.2 0.0
01/12:00pm 19.6 14.3 -0.4 26 8.8 NNE 17 24 9 13 1017.0 1016.9 0.0
01/11:30am 19.5 15.0 0.0 27 8.6 NNE 13 19 7 10 1017.5 1017.4 0.0
01/11:00am 18.6 13.2 1.2 31 7.8 NNE 19 26 10 14 1017.8 1017.7 0.0
01/10:30am 18.0 13.0 1.5 33 7.4 N 17 24 9 13 1017.9 1017.8 0.0
01/10:00am 17.3 12.4 1.7 35 7.0 NNE 17 22 9 12 1018.0 1017.9 0.0
01/09:30am 16.5 11.8 2.9 40 6.2 NNE 17 20 9 11 1018.1 1018.1 0.0
01/09:00am 15.0 10.6 2.5 43 5.6 NNE 15 20 8 11 1018.3 1018.3 0.0
01/08:30am 13.5 10.5 4.1 53 4.3 NNE 9 15 5 8 1018.4 1018.4 0.0
01/08:00am 9.8 7.4 4.4 69 2.4 N 6 7 3 4 1018.3 1018.3 0.0
01/07:30am 5.6 2.4 3.1 84 1.0 ENE 9 11 5 6 1018.0 1018.0 0.0
01/07:00am 3.2 -1.0 1.4 88 0.7 NNE 13 13 7 7 1017.6 1017.6 0.0
01/06:30am 2.4 -1.7 0.0 84 0.9 N 11 11 6 6 1017.6 1017.6 0.0
01/06:00am 3.5 -0.1 0.4 80 1.2 N 9 11 5 6 1017.6 1017.6 0.0
01/05:30am 5.0 0.6 0.6 73 1.7 N 13 15 7 8 1017.2 1017.2 0.0
01/05:00am 5.0 0.6 0.6 73 1.7 N 13 13 7 7 1017.1 1017.1 0.0
01/04:30am 6.2 1.9 1.3 71 2.0 NNE 13 15 7 8 1017.1 1017.1 0.0
01/04:00am 5.8 1.5 1.2 72 1.8 NNE 13 15 7 8 1017.1 1017.1 0.0
01/03:30am 5.9 1.3 1.8 75 1.7 NNE 15 15 8 8 1017.3 1017.3 0.0
01/03:00am 5.1 0.8 1.2 76 1.5 NNE 13 13 7 7 1017.6 1017.6 0.0
01/02:30am 4.0 0.0 0.5 78 1.3 NNE 11 11 6 6 1017.7 1017.7 0.0
01/02:00am 4.1 0.6 1.1 81 1.2 NNE 9 9 5 5 1018.0 1018.0 0.0
01/01:30am 4.5 1.6 1.2 79 1.3 NNE 6 11 3 6 1018.4 1018.4 0.0
01/01:00am 3.8 1.9 0.8 81 1.2 CALM 0 0 0 0 1018.7 1018.7 0.0
01/12:30am 4.3 2.4 0.8 78 1.4 CALM 0 0 0 0 1018.8 1018.8 0.0
01/12:00am 3.8 2.0 1.5 85 0.9 CALM 0 0 0 0 1018.9 1018.9 0.0
 
Date/Time
EST
Temp
°C
App
Temp
°C
Dew
Point
Rel
Hum
%
Delta-T
°C
Wind Press
QNH
hPa
Press
MSL
hPa
Rain
since 9 am
mm
Dir
 
Spd
km/h
Gust
km/h
Spd
kts
Gust
kts
31/11:30pm 4.0 2.2 1.4 83 1.0 CALM 0 0 0 0 1019.1 1019.1 0.0
31/11:00pm 4.4 2.7 1.8 83 1.0 CALM 0 0 0 0 1019.2 1019.2 0.0
31/10:30pm 4.9 3.2 1.6 79 1.3 CALM 0 6 0 3 1019.3 1019.3 0.0
31/10:00pm 5.2 2.3 1.3 76 1.5 ESE 6 7 3 4 1019.3 1019.3 0.0
31/09:30pm 5.8 2.9 1.5 74 1.7 ESE 6 7 3 4 1019.1 1019.1 0.0
31/09:00pm 6.3 3.2 1.4 71 2.0 ESE 7 7 4 4 1019.1 1019.1 0.0
31/08:30pm 6.9 3.9 1.8 70 2.1 ESE 7 7 4 4 1019.1 1019.1 0.0
31/08:00pm 7.4 4.4 1.7 67 2.3 ESE 7 9 4 5 1018.9 1018.9 0.0
31/07:30pm 8.9 5.9 1.8 61 3.0 SE 7 9 4 5 1018.6 1018.6 0.0
31/07:00pm 9.6 6.4 1.0 55 3.5 SSE 7 7 4 4 1018.4 1018.4 0.0
31/06:30pm 12.1 8.9 0.5 45 4.8 S 7 9 4 5 1018.3 1018.3 0.0
31/06:00pm 15.5 11.9 0.5 36 6.4 S 9 11 5 6 1018.3 1018.3 0.0
31/05:30pm 16.9 12.9 0.5 33 7.2 S 11 15 6 8 1018.4 1018.4 0.0
31/05:00pm 18.1 14.9 0.7 31 7.7 WSW 7 11 4 6 1018.4 1018.4 0.0
31/04:30pm 18.1 13.8 0.7 31 7.7 WSW 13 20 7 11 1018.3 1018.3 0.0
31/04:00pm 18.2 14.2 0.4 30 7.8 S 11 24 6 13 1018.2 1018.2 0.0
31/03:30pm 18.5 13.8 0.6 30 7.9 SW 15 30 8 16 1018.4 1018.4 0.0
31/03:00pm 18.5 15.0 1.5 32 7.7 W 9 17 5 9 1018.6 1018.6 0.0
31/02:30pm 17.9 14.4 1.4 33 7.4 SSW 9 20 5 11 1018.9 1018.9 0.0

Other Formats:

Comma delimited format used in spreadsheet applications
http://www.bom.gov.au/fwo/IDN60801/IDN60801.95695.axf

JavaScript Object Notation format (JSON) in row-major order
http://www.bom.gov.au/fwo/IDN60801/IDN60801.95695.json